Time;durP1;ratioP1;P1;durP2;ratioP2;P2;SDS_P1;SDS_P2;PMS_P1;PMS_P2;Temp;Humidity;BMP_temperature;BMP_pressure;BME280_temperature;BME280_humidity;BME280_pressure;Samples;Min_cycle;Max_cycle;Signal;HPM_P1;HPM_P2
2023/10/21 00:00:08;;;;;;;9.70;9.40;;;12.50;99.90;;;;;;5105674;28;20290;-81
2023/10/21 00:02:36;;;;;;;9.70;9.40;;;12.50;99.90;;;;;;5106201;28;20321;-81
2023/10/21 00:05:06;;;;;;;9.67;9.37;;;12.50;99.90;;;;;;5111351;28;20229;-81
2023/10/21 00:07:34;;;;;;;9.70;9.40;;;12.60;99.90;;;;;;5123288;28;21054;-81
2023/10/21 00:10:06;;;;;;;9.90;9.60;;;12.50;99.90;;;;;;5126054;28;20225;-81
2023/10/21 00:12:36;;;;;;;9.80;9.50;;;12.60;99.90;;;;;;5129471;27;20220;-81
2023/10/21 00:15:04;;;;;;;9.73;9.43;;;12.60;99.90;;;;;;5125681;28;20256;-82
2023/10/21 00:17:33;;;;;;;9.80;9.50;;;12.60;99.90;;;;;;5128330;27;20228;-80
2023/10/21 00:20:03;;;;;;;9.83;9.53;;;12.60;99.90;;;;;;5117435;28;20242;-81
2023/10/21 00:22:32;;;;;;;9.97;9.67;;;12.60;99.90;;;;;;5126181;28;20263;-81
2023/10/21 00:25:01;;;;;;;9.80;9.50;;;12.60;99.90;;;;;;5127146;27;20236;-81
2023/10/21 00:27:32;;;;;;;9.80;9.50;;;12.60;99.90;;;;;;5128671;28;20228;-81
2023/10/21 00:30:01;;;;;;;9.60;9.30;;;12.60;99.90;;;;;;5118042;28;20225;-81
2023/10/21 00:32:29;;;;;;;9.83;9.53;;;12.60;99.90;;;;;;5125591;28;20340;-80
2023/10/21 00:34:59;;;;;;;9.70;9.40;;;12.60;99.90;;;;;;5125807;27;20233;-81
2023/10/21 00:37:28;;;;;;;9.70;9.40;;;12.50;99.90;;;;;;5126623;28;20233;-83
2023/10/21 00:42:38;;;;;;;9.60;9.30;;;12.40;99.90;;;;;;5120841;28;20237;-82
2023/10/21 00:45:10;;;;;;;9.83;9.53;;;12.40;99.90;;;;;;5136127;28;20213;-81
2023/10/21 00:47:37;;;;;;;9.60;9.30;;;12.30;99.90;;;;;;5139510;28;20233;-81
2023/10/21 00:50:06;;;;;;;9.60;9.30;;;12.30;99.90;;;;;;5138987;28;20233;-81
2023/10/21 00:52:46;;;;;;;9.67;9.37;;;12.20;99.90;;;;;;5139836;27;20252;-81
2023/10/21 00:55:14;;;;;;;9.60;9.30;;;12.20;99.90;;;;;;5137033;27;20274;-81
2023/10/21 00:57:42;;;;;;;9.70;9.40;;;12.20;99.90;;;;;;5133708;28;20235;-82
2023/10/21 01:00:16;;;;;;;9.83;9.53;;;12.20;99.90;;;;;;5133448;27;20254;-82
2023/10/21 01:02:44;;;;;;;9.70;9.40;;;12.10;99.90;;;;;;5131973;28;20232;-81
2023/10/21 01:05:13;;;;;;;9.60;9.30;;;12.10;99.90;;;;;;5132163;27;20267;-81
2023/10/21 01:07:44;;;;;;;9.87;9.57;;;12.00;99.90;;;;;;5129470;28;20220;-81
2023/10/21 01:10:12;;;;;;;9.70;9.40;;;12.00;99.90;;;;;;5132925;28;20286;-82
2023/10/21 01:12:40;;;;;;;9.53;9.23;;;12.00;99.90;;;;;;5131435;28;20260;-82
2023/10/21 01:15:12;;;;;;;9.70;9.40;;;12.00;99.90;;;;;;5131274;27;20297;-82
2023/10/21 01:17:39;;;;;;;9.40;9.10;;;12.00;99.90;;;;;;5130962;28;20288;-82
2023/10/21 01:20:09;;;;;;;9.57;9.27;;;12.00;99.90;;;;;;5130931;28;20243;-81
2023/10/21 01:22:38;;;;;;;9.60;9.30;;;11.90;99.90;;;;;;5131041;28;20252;-81
2023/10/21 01:27:54;;;;;;;9.80;9.50;;;11.80;99.90;;;;;;5130784;28;20220;-81
2023/10/21 01:30:24;;;;;;;9.70;9.40;;;11.80;99.90;;;;;;5121342;28;20233;-81
2023/10/21 01:32:52;;;;;;;9.80;9.50;;;11.80;99.90;;;;;;5113867;28;20233;-81
2023/10/21 01:35:21;;;;;;;9.60;9.30;;;11.80;99.90;;;;;;5128660;28;20229;-81
2023/10/21 01:37:52;;;;;;;9.73;9.43;;;11.70;99.90;;;;;;5129687;28;20224;-80
2023/10/21 01:40:23;;;;;;;9.70;9.40;;;11.70;99.90;;;;;;5118357;28;20312;-82
2023/10/21 01:42:52;;;;;;;9.90;9.60;;;11.70;99.90;;;;;;5124872;28;20290;-81
2023/10/21 01:45:20;;;;;;;9.60;9.30;;;11.70;99.90;;;;;;5129633;27;20283;-80
2023/10/21 01:47:48;;;;;;;9.90;9.60;;;11.70;99.90;;;;;;5128957;28;20284;-81
2023/10/21 01:50:22;;;;;;;9.80;9.50;;;11.60;99.90;;;;;;5128252;28;20237;-80
2023/10/21 01:52:50;;;;;;;10.23;9.93;;;11.60;99.90;;;;;;5128378;28;20291;-81
2023/10/21 01:55:18;;;;;;;9.70;9.40;;;11.60;99.90;;;;;;5126747;27;20221;-81
2023/10/21 01:57:47;;;;;;;10.10;9.80;;;11.60;99.90;;;;;;5128016;28;20233;-81
2023/10/21 02:00:18;;;;;;;9.70;9.40;;;11.60;99.90;;;;;;5128870;28;20220;-81
2023/10/21 02:02:51;;;;;;;9.90;9.60;;;11.60;99.90;;;;;;5128234;28;20226;-80
2023/10/21 02:05:19;;;;;;;9.90;9.60;;;11.60;99.90;;;;;;5128800;27;20247;-80
2023/10/21 02:07:46;;;;;;;9.90;9.60;;;11.60;99.90;;;;;;5129355;28;20291;-81
2023/10/21 02:10:17;;;;;;;9.87;9.57;;;11.60;99.90;;;;;;5128938;28;20284;-82
2023/10/21 02:12:46;;;;;;;9.70;9.40;;;11.70;99.90;;;;;;5129433;28;20244;-81
2023/10/21 02:15:14;;;;;;;9.70;9.40;;;11.70;99.90;;;;;;5128848;27;20251;-81
2023/10/21 02:17:44;;;;;;;9.90;9.60;;;11.80;99.90;;;;;;5129376;27;20232;-81
2023/10/21 02:20:15;;;;;;;9.77;9.47;;;11.80;99.90;;;;;;5128726;28;20283;-81
2023/10/21 02:22:43;;;;;;;9.80;9.50;;;11.80;99.90;;;;;;5128743;28;20232;-81
2023/10/21 02:25:13;;;;;;;9.73;9.43;;;11.80;99.90;;;;;;5129123;27;20260;-82
2023/10/21 02:27:41;;;;;;;9.80;9.50;;;11.80;99.90;;;;;;5129286;28;20236;-82
2023/10/21 02:30:18;;;;;;;9.67;9.37;;;11.80;99.90;;;;;;5110589;28;20312;-81
2023/10/21 02:32:48;;;;;;;9.63;9.33;;;11.80;99.90;;;;;;5120717;28;20240;-84
2023/10/21 02:35:18;;;;;;;9.70;9.40;;;11.80;99.90;;;;;;5129587;27;20225;-82
2023/10/21 02:37:48;;;;;;;9.50;9.20;;;11.90;99.90;;;;;;5123172;28;20294;-82
2023/10/21 02:40:19;;;;;;;9.53;9.23;;;11.90;99.90;;;;;;5123651;28;20209;-82
2023/10/21 02:42:48;;;;;;;9.60;9.30;;;11.90;99.90;;;;;;5116053;28;20225;-82
2023/10/21 02:45:20;;;;;;;9.60;9.30;;;11.90;99.90;;;;;;5129318;27;20798;-82
2023/10/21 02:47:48;;;;;;;9.80;9.50;;;11.90;99.90;;;;;;5130252;28;20232;-82
2023/10/21 02:50:16;;;;;;;9.80;9.50;;;12.00;99.90;;;;;;5129464;28;20252;-82
2023/10/21 02:52:45;;;;;;;9.70;9.40;;;12.00;99.90;;;;;;5129386;27;20274;-84
2023/10/21 02:55:15;;;;;;;9.90;9.60;;;12.00;99.90;;;;;;5129207;27;20213;-82
2023/10/21 02:57:45;;;;;;;9.80;9.50;;;12.00;99.90;;;;;;5129346;28;20225;-83
2023/10/21 03:00:17;;;;;;;9.60;9.30;;;12.00;99.90;;;;;;5128969;28;20224;-82
2023/10/21 03:02:46;;;;;;;9.73;9.43;;;12.10;99.90;;;;;;5128489;28;20298;-81
2023/10/21 03:05:20;;;;;;;9.87;9.57;;;12.10;99.90;;;;;;5127030;27;20217;-82
2023/10/21 03:07:50;;;;;;;9.80;9.50;;;12.10;99.90;;;;;;5123677;28;20263;-82
2023/10/21 03:10:19;;;;;;;9.97;9.67;;;12.10;99.90;;;;;;5120036;27;20235;-80
2023/10/21 03:12:47;;;;;;;9.73;9.43;;;12.10;99.90;;;;;;5128781;28;20259;-80
2023/10/21 03:15:16;;;;;;;9.80;9.50;;;12.10;99.90;;;;;;5128135;27;20233;-80
2023/10/21 03:17:46;;;;;;;9.77;9.47;;;12.10;99.90;;;;;;5128180;27;20264;-81
2023/10/21 03:20:16;;;;;;;9.67;9.37;;;12.10;99.90;;;;;;5128710;28;20292;-80
2023/10/21 03:22:44;;;;;;;10.20;9.90;;;12.10;99.90;;;;;;5128574;28;20253;-81
2023/10/21 03:25:14;;;;;;;9.90;9.60;;;12.20;99.90;;;;;;5127748;28;20232;-81
2023/10/21 03:27:41;;;;;;;10.03;9.73;;;12.20;99.90;;;;;;5128405;28;20228;-81
2023/10/21 03:30:09;;;;;;;10.20;9.90;;;12.20;99.90;;;;;;5128307;28;20225;-81
2023/10/21 03:32:37;;;;;;;10.00;9.70;;;12.30;99.90;;;;;;5127999;28;20286;-81
2023/10/21 03:35:12;;;;;;;10.00;9.70;;;12.30;99.90;;;;;;5127420;27;20239;-81
2023/10/21 03:37:39;;;;;;;10.00;9.70;;;12.40;99.90;;;;;;5128566;28;20220;-82
2023/10/21 03:40:10;;;;;;;10.07;9.77;;;12.40;99.90;;;;;;5129304;28;20224;-82
2023/10/21 03:42:37;;;;;;;10.23;9.93;;;12.40;99.90;;;;;;5127424;28;20225;-82
2023/10/21 03:45:07;;;;;;;10.40;10.10;;;12.40;99.90;;;;;;5127767;27;20212;-82
2023/10/21 03:47:34;;;;;;;10.23;9.93;;;12.40;99.90;;;;;;5130565;27;20228;-82
2023/10/21 03:50:03;;;;;;;10.10;9.80;;;12.50;99.90;;;;;;5132405;28;20228;-82
2023/10/21 03:52:32;;;;;;;10.40;10.10;;;12.50;99.90;;;;;;5133150;28;20221;-82
2023/10/21 03:55:02;;;;;;;10.50;10.20;;;12.60;99.90;;;;;;5132116;27;20394;-82
2023/10/21 03:57:31;;;;;;;10.60;10.30;;;12.60;99.90;;;;;;5140742;28;20220;-82
2023/10/21 04:00:01;;;;;;;10.40;10.10;;;12.70;99.90;;;;;;5133386;28;20259;-82
2023/10/21 04:02:31;;;;;;;10.63;10.33;;;12.80;99.90;;;;;;5132443;28;20228;-82
2023/10/21 04:05:00;;;;;;;10.53;10.23;;;12.90;99.90;;;;;;5134011;27;20231;-84
2023/10/21 04:07:27;;;;;;;10.70;10.40;;;13.00;99.90;;;;;;5131824;28;20341;-82
2023/10/21 04:09:58;;;;;;;10.73;10.43;;;13.00;99.90;;;;;;5130266;28;20225;-81
2023/10/21 04:12:26;;;;;;;10.70;10.40;;;13.00;99.90;;;;;;5124452;28;20233;-82
2023/10/21 04:14:55;;;;;;;10.70;10.40;;;12.90;99.90;;;;;;5128150;27;20235;-82
2023/10/21 04:17:22;;;;;;;10.60;10.30;;;12.80;99.90;;;;;;5132850;28;20255;-82
2023/10/21 04:19:56;;;;;;;10.33;10.03;;;12.70;99.90;;;;;;5131852;28;20275;-82
2023/10/21 04:22:27;;;;;;;10.77;10.47;;;12.60;99.90;;;;;;5128746;28;20225;-81
2023/10/21 04:24:56;;;;;;;10.67;10.37;;;12.60;99.90;;;;;;5134504;27;20277;-81
2023/10/21 04:27:26;;;;;;;10.50;10.20;;;12.50;99.90;;;;;;5117507;28;20286;-81
2023/10/21 04:29:55;;;;;;;10.40;10.10;;;12.50;99.90;;;;;;5126756;28;20315;-81
2023/10/21 04:32:22;;;;;;;10.30;10.00;;;12.50;99.90;;;;;;5123082;27;20224;-80
2023/10/21 04:34:50;;;;;;;10.50;10.20;;;12.40;99.90;;;;;;5114656;28;20230;-81
2023/10/21 04:37:17;;;;;;;10.30;10.00;;;12.40;99.90;;;;;;5126924;28;20236;-82
2023/10/21 04:39:45;;;;;;;10.20;9.90;;;12.40;99.90;;;;;;5113000;28;20351;-81
2023/10/21 04:42:14;;;;;;;10.43;10.13;;;12.40;99.90;;;;;;5112800;28;20267;-82
2023/10/21 04:44:43;;;;;;;10.50;10.20;;;12.40;99.90;;;;;;5111695;28;20230;-82
2023/10/21 04:47:10;;;;;;;10.40;10.10;;;12.50;99.90;;;;;;5111904;28;20233;-81
2023/10/21 04:49:38;;;;;;;10.73;10.43;;;12.60;99.90;;;;;;5110864;28;20238;-80
2023/10/21 04:52:06;;;;;;;10.37;10.07;;;12.70;99.90;;;;;;5110706;28;20238;-81
2023/10/21 04:54:33;;;;;;;10.23;9.93;;;12.80;99.90;;;;;;5109593;28;20229;-80
2023/10/21 04:57:01;;;;;;;10.30;10.00;;;12.90;99.90;;;;;;5109913;28;20260;-80
2023/10/21 04:59:31;;;;;;;10.60;10.30;;;13.00;99.90;;;;;;5108355;28;20233;-80
2023/10/21 05:02:00;;;;;;;10.30;10.00;;;13.10;99.90;;;;;;5124842;28;20240;-80
2023/10/21 05:04:29;;;;;;;10.50;10.20;;;13.10;99.90;;;;;;5132239;27;20221;-84
2023/10/21 05:06:56;;;;;;;10.60;10.30;;;13.20;99.90;;;;;;5131681;27;20235;-81
2023/10/21 05:09:34;;;;;;;10.50;10.20;;;13.20;99.90;;;;;;5129415;27;20232;-84
2023/10/21 05:12:01;;;;;;;10.70;10.40;;;13.20;99.90;;;;;;5130436;27;20217;-82
2023/10/21 05:14:30;;;;;;;10.80;10.50;;;13.20;99.90;;;;;;5130368;27;20224;-82
2023/10/21 05:16:57;;;;;;;10.57;10.27;;;13.20;99.90;;;;;;5129383;27;20256;-81
2023/10/21 05:19:27;;;;;;;10.37;10.07;;;13.30;99.90;;;;;;5131064;27;20232;-83
2023/10/21 05:21:56;;;;;;;10.40;10.10;;;13.30;99.90;;;;;;5131086;27;20235;-83
2023/10/21 05:24:26;;;;;;;10.50;10.20;;;13.30;99.90;;;;;;5130787;27;20225;-81
2023/10/21 05:26:54;;;;;;;10.30;10.00;;;13.30;99.90;;;;;;5129988;27;20293;-83
2023/10/21 05:29:26;;;;;;;10.30;10.00;;;13.30;99.90;;;;;;5130019;27;20249;-82
2023/10/21 05:31:56;;;;;;;10.80;10.50;;;13.30;99.90;;;;;;5129718;28;20217;-83
2023/10/21 05:34:24;;;;;;;10.63;10.33;;;13.30;99.90;;;;;;5130833;27;20260;-83
2023/10/21 05:37:03;;;;;;;11.20;10.90;;;13.30;99.90;;;;;;5130036;28;20416;-83
2023/10/21 05:39:31;;;;;;;10.80;10.50;;;13.30;99.90;;;;;;5131420;28;20423;-84
2023/10/21 05:42:00;;;;;;;10.67;10.37;;;13.30;99.90;;;;;;5130050;28;20236;-84
2023/10/21 05:44:30;;;;;;;10.73;10.43;;;13.40;99.90;;;;;;5131035;28;20229;-82
2023/10/21 05:47:02;;;;;;;10.70;10.40;;;13.40;99.90;;;;;;5130698;28;20232;-83
2023/10/21 05:49:29;;;;;;;10.60;10.30;;;13.40;99.90;;;;;;5130360;28;20573;-82
2023/10/21 05:52:08;;;;;;;10.60;10.30;;;13.40;99.90;;;;;;5131524;28;20275;-84
2023/10/21 05:54:37;;;;;;;10.43;10.13;;;13.40;99.90;;;;;;5132691;28;20286;-81
2023/10/21 05:57:06;;;;;;;10.67;10.37;;;13.40;99.90;;;;;;5132866;28;20224;-82
2023/10/21 05:59:36;;;;;;;10.43;10.13;;;13.30;99.90;;;;;;5132930;28;20228;-82
2023/10/21 06:02:09;;;;;;;10.50;10.20;;;13.20;99.90;;;;;;5133165;28;20235;-81
2023/10/21 06:04:36;;;;;;;10.30;10.00;;;13.20;99.90;;;;;;5133032;28;20221;-82
2023/10/21 06:07:04;;;;;;;10.30;10.00;;;13.20;99.90;;;;;;5133505;28;20255;-82
2023/10/21 06:09:33;;;;;;;10.33;10.03;;;13.20;99.90;;;;;;5132639;28;20255;-82
2023/10/21 06:12:01;;;;;;;10.07;9.77;;;13.20;99.90;;;;;;5133587;28;20232;-82
2023/10/21 06:14:41;;;;;;;10.10;9.80;;;13.20;99.90;;;;;;5132443;28;20233;-83
2023/10/21 06:17:14;;;;;;;10.60;10.30;;;13.20;99.90;;;;;;5120063;28;20316;-84
2023/10/21 06:19:41;;;;;;;10.30;10.00;;;13.20;99.90;;;;;;5124228;28;20298;-83
2023/10/21 06:22:11;;;;;;;10.37;10.07;;;13.20;99.90;;;;;;5124838;28;20244;-83
2023/10/21 06:24:39;;;;;;;10.30;10.00;;;13.20;99.90;;;;;;5133203;28;20247;-81
2023/10/21 06:27:08;;;;;;;10.30;10.00;;;13.20;99.90;;;;;;5135026;28;20229;-83
2023/10/21 06:29:37;;;;;;;10.27;9.97;;;13.20;99.90;;;;;;5135413;28;20341;-83
2023/10/21 06:32:06;;;;;;;10.17;9.87;;;13.20;99.90;;;;;;5135410;28;20221;-82
2023/10/21 06:34:35;;;;;;;10.17;9.87;;;13.30;99.90;;;;;;5136871;27;20216;-80
2023/10/21 06:37:02;;;;;;;10.60;10.30;;;13.40;99.90;;;;;;5119730;28;20234;-81
2023/10/21 06:39:31;;;;;;;10.47;10.17;;;13.40;99.90;;;;;;5138644;28;20224;-82
2023/10/21 06:41:58;;;;;;;10.30;10.00;;;13.50;99.90;;;;;;5141174;27;20217;-82
2023/10/21 06:44:29;;;;;;;10.10;9.80;;;13.60;99.90;;;;;;5140104;27;20266;-83
2023/10/21 06:46:57;;;;;;;10.10;9.80;;;13.60;99.90;;;;;;5141311;27;20229;-83
2023/10/21 06:49:26;;;;;;;10.47;10.17;;;13.70;99.90;;;;;;5140833;28;20220;-83
2023/10/21 06:51:56;;;;;;;10.20;9.90;;;13.70;99.90;;;;;;5139730;27;20242;-81
2023/10/21 06:54:24;;;;;;;10.57;10.27;;;13.70;99.90;;;;;;5138257;27;20225;-81
2023/10/21 06:56:52;;;;;;;10.57;10.27;;;13.80;99.90;;;;;;5139095;28;20251;-80
2023/10/21 06:59:20;;;;;;;10.37;10.07;;;13.90;99.90;;;;;;5139400;28;20221;-79
2023/10/21 07:01:47;;;;;;;10.10;9.80;;;13.90;99.90;;;;;;5136629;28;20209;-80
2023/10/21 07:04:14;;;;;;;10.10;9.80;;;14.00;99.90;;;;;;5139687;27;20216;-80
2023/10/21 07:06:42;;;;;;;10.30;10.00;;;14.10;99.90;;;;;;5137833;28;20232;-80
2023/10/21 07:09:11;;;;;;;10.30;10.00;;;14.20;99.90;;;;;;5137200;28;20278;-80
2023/10/21 07:11:37;;;;;;;10.30;10.00;;;14.30;99.90;;;;;;5132228;28;20231;-80
2023/10/21 07:14:04;;;;;;;10.30;10.00;;;14.30;99.90;;;;;;5131478;27;20220;-80
2023/10/21 07:16:32;;;;;;;10.40;10.10;;;14.40;99.90;;;;;;5129773;28;20228;-82
2023/10/21 07:18:59;;;;;;;10.20;9.90;;;14.30;99.90;;;;;;5129683;28;20248;-81
2023/10/21 07:21:27;;;;;;;10.20;9.90;;;14.30;99.90;;;;;;5128833;28;20275;-81
2023/10/21 07:23:54;;;;;;;10.30;10.00;;;14.40;99.90;;;;;;5130500;28;20228;-82
2023/10/21 07:26:29;;;;;;;10.40;10.10;;;14.50;99.90;;;;;;5128843;27;20239;-81
2023/10/21 07:28:56;;;;;;;10.47;10.17;;;14.50;99.90;;;;;;5129960;28;20212;-82
2023/10/21 07:31:23;;;;;;;10.53;10.23;;;14.60;99.90;;;;;;5129951;28;20256;-83
2023/10/21 07:33:52;;;;;;;10.70;10.40;;;14.60;99.90;;;;;;5130755;28;20260;-81
2023/10/21 07:36:19;;;;;;;10.50;10.20;;;14.60;99.90;;;;;;5114651;28;20229;-84
2023/10/21 07:38:48;;;;;;;10.47;10.17;;;14.60;99.90;;;;;;5114869;28;20285;-85
2023/10/21 07:41:16;;;;;;;10.00;9.70;;;14.60;99.90;;;;;;5116834;28;20226;-84
2023/10/21 07:43:47;;;;;;;9.90;9.60;;;14.60;99.90;;;;;;5116507;28;20228;-83
2023/10/21 07:46:18;;;;;;;10.07;9.77;;;14.60;99.90;;;;;;5115131;28;20248;-83
2023/10/21 07:48:46;;;;;;;10.00;9.70;;;14.70;99.90;;;;;;5111832;28;20233;-83
2023/10/21 07:51:13;;;;;;;9.90;9.60;;;14.80;99.90;;;;;;5110422;28;20264;-83
2023/10/21 07:53:40;;;;;;;10.20;9.90;;;14.90;99.90;;;;;;5109069;28;20251;-82
2023/10/21 07:56:07;;;;;;;10.30;10.00;;;15.00;99.90;;;;;;5109581;28;20237;-82
2023/10/21 07:58:38;;;;;;;10.23;9.93;;;15.10;99.90;;;;;;5109719;28;20253;-82
2023/10/21 08:01:07;;;;;;;10.20;9.90;;;15.10;99.90;;;;;;5110554;28;20293;-82
2023/10/21 08:03:34;;;;;;;10.20;9.90;;;15.20;99.90;;;;;;5108930;28;20251;-82
2023/10/21 08:06:04;;;;;;;9.95;9.65;;;15.30;99.90;;;;;;5107759;28;20239;-83
2023/10/21 08:08:32;;;;;;;10.15;9.85;;;15.30;99.90;;;;;;5108281;28;20306;-81
2023/10/21 08:11:03;;;;;;;10.32;10.02;;;15.30;99.90;;;;;;5107730;28;20222;-83
2023/10/21 08:13:31;;;;;;;10.25;9.95;;;15.30;99.90;;;;;;5107536;28;20218;-83
2023/10/21 08:16:03;;;;;;;10.23;9.93;;;15.30;99.90;;;;;;5107495;28;20261;-82
2023/10/21 08:18:32;;;;;;;10.30;10.00;;;15.40;99.90;;;;;;5107740;28;20225;-82
2023/10/21 08:21:07;;;;;;;10.02;9.73;;;15.40;99.90;;;;;;5106373;28;20237;-85
2023/10/21 08:23:39;;;;;;;10.00;9.70;;;15.40;99.90;;;;;;5106742;28;20284;-87
2023/10/21 08:26:18;;;;;;;10.20;9.90;;;15.40;99.90;;;;;;5105886;28;20310;-86
2023/10/21 08:28:57;;;;;;;10.18;9.88;;;15.50;99.90;;;;;;5106366;28;20245;-85
2023/10/21 08:31:28;;;;;;;10.15;9.85;;;15.60;99.90;;;;;;5106756;28;20233;-86
2023/10/21 08:33:56;;;;;;;10.18;9.88;;;15.70;99.90;;;;;;5109408;28;20213;-83
2023/10/21 08:36:24;;;;;;;10.45;10.15;;;15.90;99.90;;;;;;5110955;28;20236;-86
2023/10/21 08:38:52;;;;;;;10.30;10.00;;;16.00;99.90;;;;;;5111199;28;20245;-83
2023/10/21 08:41:24;;;;;;;10.30;10.00;;;16.30;99.90;;;;;;5109577;28;20225;-83
2023/10/21 08:43:54;;;;;;;10.60;10.30;;;16.70;99.90;;;;;;5109206;28;20271;-85
2023/10/21 08:46:23;;;;;;;10.45;10.15;;;17.00;99.90;;;;;;5108669;28;20245;-83
2023/10/21 08:48:52;;;;;;;10.40;10.10;;;17.30;99.90;;;;;;5109479;28;20225;-82
2023/10/21 08:51:27;;;;;;;10.43;10.13;;;17.40;99.90;;;;;;5111194;28;20261;-83
2023/10/21 08:54:00;;;;;;;10.73;10.43;;;17.50;99.90;;;;;;5111454;28;20240;-82
2023/10/21 08:56:40;;;;;;;10.35;10.05;;;17.50;99.90;;;;;;5110957;28;20283;-88
2023/10/21 08:59:08;;;;;;;10.52;10.23;;;17.60;99.90;;;;;;5110596;28;20222;-82
2023/10/21 09:01:37;;;;;;;10.90;10.60;;;17.80;99.90;;;;;;5109279;28;20232;-83
2023/10/21 09:04:05;;;;;;;10.55;10.25;;;18.10;99.90;;;;;;5108039;28;20265;-83
2023/10/21 09:06:36;;;;;;;10.60;10.30;;;18.40;99.90;;;;;;5111876;28;20232;-84
2023/10/21 09:09:05;;;;;;;10.50;10.20;;;18.50;99.90;;;;;;5112334;28;20229;-85
2023/10/21 09:11:34;;;;;;;10.50;10.20;;;18.50;99.90;;;;;;5113136;28;20218;-82
2023/10/21 09:14:01;;;;;;;10.40;10.10;;;18.50;99.90;;;;;;5113061;28;20221;-82
2023/10/21 09:16:36;;;;;;;10.55;10.25;;;18.50;99.90;;;;;;5113964;28;20249;-85
2023/10/21 09:19:06;;;;;;;10.60;10.30;;;18.50;99.90;;;;;;5115907;28;20220;-83
2023/10/21 09:21:40;;;;;;;10.40;10.10;;;18.40;99.90;;;;;;5115184;27;20225;-82
2023/10/21 09:24:11;;;;;;;10.57;10.27;;;18.50;99.90;;;;;;5110515;28;20294;-79
2023/10/21 09:26:40;;;;;;;10.60;10.30;;;18.50;99.90;;;;;;5112511;28;20237;-83
2023/10/21 09:29:11;;;;;;;10.30;10.00;;;18.50;99.90;;;;;;5112503;28;20233;-80
2023/10/21 09:31:52;;;;;;;10.43;10.13;;;18.50;99.90;;;;;;5111967;28;20221;-80
2023/10/21 09:34:27;;;;;;;10.30;10.00;;;18.50;99.90;;;;;;5110394;28;20222;-81
2023/10/21 09:36:58;;;;;;;10.05;9.75;;;18.40;99.90;;;;;;5110225;28;20228;-79
2023/10/21 09:39:27;;;;;;;10.13;9.82;;;18.40;99.90;;;;;;5111093;27;20236;-81
2023/10/21 09:42:00;;;;;;;10.15;9.85;;;18.50;99.90;;;;;;5111946;28;20222;-81
2023/10/21 09:44:28;;;;;;;10.20;9.90;;;18.50;99.90;;;;;;5110403;28;20241;-79
2023/10/21 09:46:57;;;;;;;10.10;9.80;;;18.20;99.90;;;;;;5110799;28;20325;-81
2023/10/21 09:49:27;;;;;;;10.05;9.75;;;18.10;99.90;;;;;;5108885;28;20904;-80
2023/10/21 09:52:04;;;;;;;9.98;9.68;;;18.10;99.90;;;;;;5109779;28;20244;-80
2023/10/21 09:54:40;;;;;;;10.00;9.70;;;18.30;99.90;;;;;;5112204;28;20237;-81
2023/10/21 09:57:10;;;;;;;10.30;10.00;;;18.60;99.90;;;;;;5111463;28;20298;-81
2023/10/21 09:59:38;;;;;;;10.05;9.75;;;18.80;99.90;;;;;;5110395;28;20218;-80
2023/10/21 10:02:08;;;;;;;10.38;10.07;;;18.90;99.90;;;;;;5111738;28;20252;-82
2023/10/21 10:04:37;;;;;;;10.20;9.90;;;19.10;99.90;;;;;;5112064;28;20233;-82
2023/10/21 10:07:08;;;;;;;10.18;9.88;;;19.40;99.90;;;;;;5111833;28;20234;-82
2023/10/21 10:09:39;;;;;;;10.00;9.70;;;19.60;99.90;;;;;;5112563;28;20244;-82
2023/10/21 10:12:14;;;;;;;9.70;9.40;;;19.50;99.90;;;;;;5115552;28;20230;-83
2023/10/21 10:14:43;;;;;;;9.88;9.57;;;19.10;99.90;;;;;;5112079;28;20280;-83
2023/10/21 10:17:13;;;;;;;9.90;9.60;;;19.10;99.90;;;;;;5110614;28;20233;-83
2023/10/21 10:19:43;;;;;;;10.10;9.80;;;19.30;99.90;;;;;;5129222;28;20233;-82
2023/10/21 10:22:31;;;;;;;10.10;9.80;;;19.60;99.90;;;;;;5128230;28;20324;-82
2023/10/21 10:25:10;;;;;;;10.35;10.05;;;19.70;99.90;;;;;;5127563;27;20330;-80
2023/10/21 10:27:40;;;;;;;10.02;9.73;;;19.60;99.90;;;;;;5130046;28;20219;-82
2023/10/21 10:30:19;;;;;;;10.43;10.13;;;19.80;99.90;;;;;;5128044;28;20221;-81
2023/10/21 10:32:47;;;;;;;10.20;9.90;;;19.90;99.90;;;;;;5127136;28;20241;-81
2023/10/21 10:35:31;;;;;;;10.35;10.05;;;20.00;99.90;;;;;;5126835;28;20236;-81
2023/10/21 10:38:00;;;;;;;10.38;10.07;;;20.30;99.90;;;;;;5126566;28;20231;-82
2023/10/21 10:40:35;;;;;;;10.63;10.32;;;20.60;99.90;;;;;;5127442;28;20244;-83
2023/10/21 10:43:03;;;;;;;10.55;10.25;;;20.50;99.90;;;;;;5127354;28;20216;-81
2023/10/21 10:45:33;;;;;;;10.23;9.93;;;20.60;99.90;;;;;;5128200;27;20289;-83
2023/10/21 10:48:02;;;;;;;10.48;10.18;;;20.80;99.90;;;;;;5128839;28;20236;-83
2023/10/21 10:50:29;;;;;;;10.50;10.20;;;20.60;99.90;;;;;;5128198;28;20244;-80
2023/10/21 10:52:57;;;;;;;10.43;10.13;;;20.70;99.90;;;;;;5118081;28;20331;-77
2023/10/21 10:55:25;;;;;;;10.70;10.40;;;21.20;99.90;;;;;;5124445;28;20225;-81
2023/10/21 10:57:53;;;;;;;10.65;10.35;;;21.50;99.90;;;;;;5124171;27;20260;-80
2023/10/21 11:00:22;;;;;;;10.63;10.32;;;21.80;99.90;;;;;;5128822;27;20337;-88
2023/10/21 11:02:59;;;;;;;10.38;10.07;;;22.00;99.90;;;;;;5129915;27;20240;-84
2023/10/21 11:05:28;;;;;;;10.38;10.07;;;22.10;99.90;;;;;;5127015;28;20323;-85
2023/10/21 11:07:59;;;;;;;10.60;10.30;;;21.90;99.90;;;;;;5129060;28;20224;-88
2023/10/21 11:10:37;;;;;;;10.70;10.40;;;21.60;99.90;;;;;;5129754;28;20224;-85
2023/10/21 11:13:06;;;;;;;10.70;10.40;;;21.20;99.90;;;;;;5130257;28;20243;-87
2023/10/21 11:15:44;;;;;;;10.73;10.43;;;20.90;99.90;;;;;;5130447;27;20209;-87
2023/10/21 11:18:12;;;;;;;10.50;10.20;;;20.60;99.90;;;;;;5126637;28;20248;-83
2023/10/21 11:20:48;;;;;;;10.40;10.10;;;20.50;99.90;;;;;;5127817;27;20275;-85
2023/10/21 11:23:18;;;;;;;10.80;10.50;;;20.60;99.90;;;;;;5128919;28;20225;-83
2023/10/21 11:25:49;;;;;;;11.00;10.70;;;20.80;99.90;;;;;;5125095;28;20241;-83
2023/10/21 11:28:17;;;;;;;10.77;10.48;;;21.10;99.90;;;;;;5126568;28;20220;-83
2023/10/21 11:30:46;;;;;;;10.88;10.57;;;21.20;99.90;;;;;;5128064;27;20279;-84
2023/10/21 11:33:21;;;;;;;10.70;10.40;;;21.20;99.90;;;;;;5147525;22;20236;-86
2023/10/21 11:36:11;;;;;;;10.80;10.50;;;21.20;99.90;;;;;;5152265;27;20212;-86
2023/10/21 11:38:44;;;;;;;10.70;10.40;;;21.30;99.90;;;;;;5160330;27;20271;-85
2023/10/21 11:41:33;;;;;;;10.77;10.48;;;21.30;99.90;;;;;;5155654;27;20228;-89
2023/10/21 11:44:43;;;;;;;10.60;10.30;;;20.80;99.90;;;;;;5152809;27;20224;-87
2023/10/21 11:47:12;;;;;;;10.73;10.43;;;20.50;99.90;;;;;;5149958;27;20216;-81
2023/10/21 11:49:49;;;;;;;10.77;10.48;;;20.50;99.90;;;;;;5143426;27;20278;-85
2023/10/21 11:52:22;;;;;;;10.65;10.35;;;20.40;99.90;;;;;;5151568;27;20291;-83
2023/10/21 12:20:44;;;;;;;10.57;10.27;;;18.90;99.90;;;;;;5154941;27;20224;-84
2023/10/21 12:37:32;;;;;;;10.40;10.10;;;18.80;99.90;;;;;;5128954;27;20316;-86
2023/10/21 12:40:30;;;;;;;10.50;10.20;;;18.80;99.90;;;;;;5114220;28;20222;-85
2023/10/21 12:43:24;;;;;;;10.18;9.88;;;18.60;99.90;;;;;;5112669;28;20225;-86
2023/10/21 12:45:54;;;;;;;10.55;10.25;;;18.40;99.90;;;;;;5117010;28;20253;-83
2023/10/21 12:48:25;;;;;;;10.40;10.10;;;18.30;99.90;;;;;;5115711;28;20221;-85
2023/10/21 12:50:59;;;;;;;10.27;9.98;;;18.20;99.90;;;;;;5116809;28;20214;-83
2023/10/21 12:53:28;;;;;;;10.20;9.90;;;18.10;99.90;;;;;;5116089;28;20251;-84
2023/10/21 12:56:06;;;;;;;10.32;10.02;;;18.00;99.90;;;;;;5116723;28;20232;-83
2023/10/21 13:01:23;;;;;;;10.20;9.90;;;17.80;99.90;;;;;;5121889;27;20224;-85
2023/10/21 13:03:56;;;;;;;10.05;9.75;;;17.70;99.90;;;;;;5120165;28;20277;-83
2023/10/21 13:06:24;;;;;;;10.20;9.90;;;17.70;99.90;;;;;;5117438;28;20247;-83
2023/10/21 13:09:00;;;;;;;10.50;10.20;;;17.60;99.90;;;;;;5120500;28;20213;-83
2023/10/21 13:11:29;;;;;;;10.23;9.93;;;17.40;99.90;;;;;;5121495;28;20225;-82
2023/10/21 13:14:09;;;;;;;10.10;9.80;;;17.40;99.90;;;;;;5121269;28;20225;-83
2023/10/21 13:16:46;;;;;;;10.00;9.70;;;17.30;99.90;;;;;;5121919;28;20225;-82
2023/10/21 13:22:05;;;;;;;9.93;9.63;;;17.30;99.90;;;;;;5120375;28;20230;-83
2023/10/21 13:24:34;;;;;;;10.00;9.70;;;17.30;99.90;;;;;;5116651;28;20241;-84
2023/10/21 13:27:04;;;;;;;9.80;9.50;;;17.30;99.90;;;;;;5114148;28;20229;-83
2023/10/21 13:29:32;;;;;;;10.20;9.90;;;17.20;99.90;;;;;;5113507;28;20232;-83
2023/10/21 13:32:01;;;;;;;9.80;9.50;;;17.20;99.90;;;;;;5112948;28;20266;-85
2023/10/21 13:34:31;;;;;;;9.90;9.60;;;17.20;99.90;;;;;;5112396;28;20229;-85
2023/10/21 13:36:59;;;;;;;9.90;9.60;;;17.20;99.90;;;;;;5112797;28;20225;-84
2023/10/21 13:39:28;;;;;;;9.90;9.60;;;17.10;99.90;;;;;;5112761;28;20233;-85
2023/10/21 13:41:57;;;;;;;10.07;9.77;;;17.00;99.90;;;;;;5112757;28;20245;-84